createdAt,value
2018-10-17T00:00:50.209Z,0.251
2018-10-17T00:02:50.378Z,0.217
2018-10-17T00:04:50.032Z,0.262
2018-10-17T00:06:50.366Z,0.262
2018-10-17T00:08:50.545Z,0.234
2018-10-17T00:10:49.837Z,0.239
2018-10-17T00:12:50.014Z,0.239
2018-10-17T00:14:50.198Z,0.251
2018-10-17T00:16:50.596Z,0.257
2018-10-17T00:18:49.808Z,0.217
2018-10-17T00:20:50.089Z,0.205
2018-10-17T00:22:50.238Z,0.234
2018-10-17T00:24:50.464Z,0.262
2018-10-17T00:26:50.153Z,0.194
2018-10-17T00:28:50.331Z,0.194
2018-10-17T00:30:50.455Z,0.274
2018-10-17T00:32:50.839Z,0.257
2018-10-17T00:34:50.216Z,0.239
2018-10-17T00:36:50.644Z,0.251
2018-10-17T00:38:50.036Z,0.262
2018-10-17T00:40:50.171Z,0.160
2018-10-17T00:42:50.293Z,0.268
2018-10-17T00:44:50.400Z,0.182
2018-10-17T00:46:49.786Z,0.251
2018-10-17T00:48:49.950Z,0.171
2018-10-17T00:50:50.095Z,0.245
2018-10-17T00:52:50.203Z,0.211
2018-10-17T00:54:50.354Z,0.308
2018-10-17T00:56:50.717Z,0.245
2018-10-17T00:58:49.977Z,0.268
2018-10-17T01:00:50.106Z,0.177
2018-10-17T01:02:50.223Z,0.251
2018-10-17T01:04:50.806Z,0.171
2018-10-17T01:06:50.318Z,0.251
2018-10-17T01:08:50.593Z,0.251
2018-10-17T01:10:50.730Z,0.279
2018-10-17T01:12:50.318Z,0.239
2018-10-17T01:14:50.567Z,0.217
2018-10-17T01:16:50.059Z,0.217
2018-10-17T01:18:50.292Z,0.268
2018-10-17T01:20:50.512Z,0.211
2018-10-17T01:22:50.804Z,0.291
2018-10-17T01:24:50.079Z,0.182
2018-10-17T01:26:50.508Z,0.285
2018-10-17T01:28:49.903Z,0.137
2018-10-17T01:30:50.112Z,0.302
2018-10-17T01:32:50.330Z,0.217
2018-10-17T01:34:50.771Z,0.251
2018-10-17T01:36:50.356Z,0.251
2018-10-17T01:38:50.534Z,0.205
2018-10-17T01:40:50.747Z,0.222
2018-10-17T01:42:50.019Z,0.279
2018-10-17T01:44:50.199Z,0.245
2018-10-17T01:46:50.638Z,0.125
2018-10-17T01:48:49.954Z,0.291
2018-10-17T01:50:50.094Z,0.194
2018-10-17T01:52:50.252Z,0.234
2018-10-17T01:54:50.390Z,0.251
2018-10-17T01:56:50.640Z,0.200
2018-10-17T01:58:49.815Z,0.268
2018-10-17T02:00:50.227Z,0.211
2018-10-17T02:02:50.373Z,0.188
2018-10-17T02:04:49.802Z,0.251
2018-10-17T02:06:50.329Z,0.234
2018-10-17T02:08:50.624Z,0.228
2018-10-17T02:10:49.852Z,0.228
2018-10-17T02:12:50.114Z,0.285
2018-10-17T02:14:50.336Z,0.336
2018-10-17T02:16:50.682Z,0.268
2018-10-17T02:18:49.854Z,0.205
2018-10-17T02:20:49.983Z,0.228
2018-10-17T02:22:50.128Z,0.257
2018-10-17T02:24:50.297Z,0.245
2018-10-17T02:26:50.559Z,0.262
2018-10-17T02:28:49.875Z,0.228
2018-10-17T02:30:50.154Z,0.228
2018-10-17T02:32:50.417Z,0.194
2018-10-17T02:34:50.255Z,0.143
2018-10-17T02:36:50.643Z,0.228
2018-10-17T02:38:49.864Z,0.308
2018-10-17T02:40:50.222Z,0.239
2018-10-17T02:42:50.517Z,0.279
2018-10-17T02:44:49.828Z,0.279
2018-10-17T02:46:50.236Z,0.262
2018-10-17T02:48:50.444Z,0.262
2018-10-17T02:50:50.660Z,0.245
2018-10-17T02:52:49.927Z,0.211
2018-10-17T02:54:50.067Z,0.222
2018-10-17T02:56:50.434Z,0.245
2018-10-17T02:58:50.571Z,0.308
2018-10-17T03:00:49.800Z,0.257
2018-10-17T03:02:50.011Z,0.302
2018-10-17T03:04:50.494Z,0.314
2018-10-17T03:06:50.068Z,0.319
2018-10-17T03:08:50.265Z,0.245
2018-10-17T03:10:50.462Z,0.217
2018-10-17T03:12:49.932Z,0.228
2018-10-17T03:14:50.127Z,0.217
2018-10-17T03:16:50.478Z,0.234
2018-10-17T03:18:50.849Z,0.279
2018-10-17T03:20:50.092Z,0.228
2018-10-17T03:22:50.252Z,0.239
2018-10-17T03:24:50.429Z,0.239
2018-10-17T03:26:49.939Z,0.268
2018-10-17T03:28:50.178Z,0.262
2018-10-17T03:30:50.521Z,0.200
2018-10-17T03:32:49.809Z,0.239
2018-10-17T03:34:50.472Z,0.257
2018-10-17T03:36:50.814Z,0.251
2018-10-17T03:38:50.153Z,0.251
2018-10-17T03:40:50.355Z,0.245
2018-10-17T03:42:50.601Z,0.251
2018-10-17T03:44:49.986Z,0.222
2018-10-17T03:46:50.275Z,0.222
2018-10-17T03:48:50.501Z,0.234
2018-10-17T03:50:50.688Z,0.257
2018-10-17T03:52:50.011Z,0.257
2018-10-17T03:54:50.248Z,0.262
2018-10-17T03:56:50.690Z,0.291
2018-10-17T03:58:49.822Z,0.251
2018-10-17T04:00:50.171Z,0.239
2018-10-17T04:02:50.595Z,0.239
2018-10-17T04:04:50.357Z,0.308
2018-10-17T04:06:50.659Z,0.222
2018-10-17T04:08:50.007Z,0.268
2018-10-17T04:10:50.209Z,0.262
2018-10-17T04:12:50.456Z,0.222
2018-10-17T04:14:49.825Z,0.205
2018-10-17T04:16:50.110Z,0.268
2018-10-17T04:18:50.284Z,0.257
2018-10-17T04:20:50.651Z,0.291
2018-10-17T04:22:49.939Z,0.285
2018-10-17T04:24:50.166Z,0.296
2018-10-17T04:26:49.951Z,0.268
2018-10-17T04:28:50.176Z,0.262
2018-10-17T04:30:50.448Z,0.222
2018-10-17T04:32:49.888Z,0.234
2018-10-17T04:34:50.355Z,0.217
2018-10-17T04:36:50.718Z,0.274
2018-10-17T04:38:50.066Z,0.228
2018-10-17T04:40:50.376Z,0.228
2018-10-17T04:42:50.567Z,0.228
2018-10-17T04:44:49.962Z,0.279
2018-10-17T04:46:50.350Z,0.245
2018-10-17T04:48:50.444Z,0.228
2018-10-17T04:50:50.657Z,0.222
2018-10-17T04:52:49.871Z,0.217
2018-10-17T04:54:50.069Z,0.245
2018-10-17T04:56:50.472Z,0.234
2018-10-17T04:58:50.810Z,0.251
2018-10-17T05:00:50.073Z,0.222
2018-10-17T05:02:50.204Z,0.257
2018-10-17T05:04:50.554Z,0.268
2018-10-17T05:06:50.649Z,0.234
2018-10-17T05:08:50.119Z,0.234
2018-10-17T05:10:50.278Z,0.285
2018-10-17T05:12:50.506Z,0.285
2018-10-17T05:14:50.661Z,0.239
2018-10-17T05:16:50.023Z,0.274
2018-10-17T05:18:50.119Z,0.222
2018-10-17T05:20:50.272Z,0.171
2018-10-17T05:22:50.453Z,0.274
2018-10-17T05:24:50.540Z,0.257
2018-10-17T05:26:50.254Z,0.239
2018-10-17T05:28:50.344Z,0.268
2018-10-17T05:30:50.524Z,0.200
2018-10-17T05:32:50.701Z,0.211
2018-10-17T05:34:50.437Z,0.228
2018-10-17T05:36:50.414Z,0.245
2018-10-17T05:38:50.587Z,0.234
2018-10-17T05:40:49.827Z,0.200
2018-10-17T05:42:50.028Z,0.182
2018-10-17T05:44:50.213Z,0.257
2018-10-17T05:46:50.616Z,0.279
2018-10-17T05:48:49.911Z,0.325
2018-10-17T05:50:49.963Z,0.205
2018-10-17T05:52:50.162Z,0.234
2018-10-17T05:54:50.463Z,0.217
2018-10-17T05:56:49.802Z,0.211
2018-10-17T05:58:49.957Z,0.274
2018-10-17T06:00:50.187Z,0.291
2018-10-17T06:02:50.390Z,0.222
2018-10-17T06:04:49.965Z,0.268
2018-10-17T06:06:50.355Z,0.148
2018-10-17T06:08:50.584Z,0.211
2018-10-17T06:10:49.816Z,0.211
2018-10-17T06:12:50.028Z,0.217
2018-10-17T06:14:50.180Z,0.245
2018-10-17T06:16:50.989Z,0.182
2018-10-17T06:18:50.428Z,0.251
2018-10-17T06:20:50.585Z,0.251
2018-10-17T06:22:49.919Z,0.251
2018-10-17T06:24:50.056Z,0.182
2018-10-17T06:26:50.409Z,0.274
2018-10-17T06:28:50.573Z,0.217
2018-10-17T06:30:50.543Z,0.268
2018-10-17T06:32:50.248Z,0.234
2018-10-17T06:34:51.458Z,0.251
2018-10-17T06:36:50.127Z,0.228
2018-10-17T06:38:50.258Z,0.171
2018-10-17T06:40:50.485Z,0.291
2018-10-17T06:42:49.800Z,0.239
2018-10-17T06:44:50.090Z,0.154
2018-10-17T06:46:50.353Z,0.217
2018-10-17T06:48:50.647Z,0.228
2018-10-17T06:50:49.874Z,0.211
2018-10-17T06:52:50.177Z,0.177
2018-10-17T06:54:50.333Z,0.348
2018-10-17T06:56:50.716Z,0.194
2018-10-17T06:58:49.982Z,0.205
2018-10-17T07:00:50.121Z,0.239
2018-10-17T07:02:50.397Z,0.217
2018-10-17T07:04:50.106Z,0.222
2018-10-17T07:06:50.394Z,0.160
2018-10-17T07:08:50.516Z,0.217
2018-10-17T07:10:50.637Z,0.211
2018-10-17T07:12:50.031Z,0.211
2018-10-17T07:14:50.170Z,0.268
2018-10-17T07:16:50.545Z,0.257
2018-10-17T07:18:50.720Z,0.171
2018-10-17T07:20:49.898Z,0.131
2018-10-17T07:22:50.075Z,0.285
2018-10-17T07:24:50.265Z,0.177
2018-10-17T07:26:50.603Z,0.177
2018-10-17T07:28:51.472Z,0.182
2018-10-17T07:30:50.046Z,0.137
2018-10-17T07:32:50.234Z,0.205
2018-10-17T07:34:50.669Z,0.182
2018-10-17T07:36:49.940Z,0.188
2018-10-17T07:38:50.117Z,0.251
2018-10-17T07:40:50.253Z,0.234
2018-10-17T07:42:50.510Z,0.234
2018-10-17T07:44:50.738Z,0.222
2018-10-17T07:46:50.066Z,0.222
2018-10-17T07:48:50.305Z,0.228
2018-10-17T07:50:50.444Z,0.228
2018-10-17T07:52:51.117Z,0.182
2018-10-17T07:54:50.419Z,0.182
2018-10-17T07:56:50.727Z,0.217
2018-10-17T07:58:50.057Z,0.217
2018-10-17T08:00:50.202Z,0.222
2018-10-17T08:02:50.488Z,0.165
2018-10-17T08:04:50.222Z,0.314
2018-10-17T08:06:50.535Z,0.217
2018-10-17T08:08:50.615Z,0.211
2018-10-17T08:10:49.800Z,0.245
2018-10-17T08:12:50.049Z,0.205
2018-10-17T08:14:50.204Z,0.188
2018-10-17T08:16:50.478Z,0.268
2018-10-17T08:18:50.585Z,0.239
2018-10-17T08:20:49.809Z,0.160
2018-10-17T08:22:49.956Z,0.165
2018-10-17T08:24:50.182Z,0.251
2018-10-17T08:26:50.492Z,0.165
2018-10-17T08:28:50.628Z,0.222
2018-10-17T08:30:49.856Z,0.239
2018-10-17T08:32:50.037Z,0.228
2018-10-17T08:34:50.582Z,0.257
2018-10-17T08:36:52.174Z,0.279
2018-10-17T08:38:50.437Z,0.200
2018-10-17T08:40:50.907Z,0.148
2018-10-17T08:42:50.191Z,0.239
2018-10-17T08:44:50.608Z,0.222
2018-10-17T08:46:50.128Z,0.245
2018-10-17T08:48:50.322Z,0.251
2018-10-17T08:50:51.196Z,0.200
2018-10-17T08:52:49.795Z,0.200
2018-10-17T08:54:50.095Z,0.205
2018-10-17T08:56:50.572Z,0.211
2018-10-17T08:58:50.778Z,0.262
2018-10-17T09:00:49.912Z,0.262
2018-10-17T09:02:50.016Z,0.217
2018-10-17T09:04:50.331Z,0.200
2018-10-17T09:06:50.750Z,0.171
2018-10-17T09:08:49.938Z,0.177
2018-10-17T09:10:50.028Z,0.285
2018-10-17T09:12:50.161Z,0.194
2018-10-17T09:14:50.264Z,0.200
2018-10-17T09:16:50.922Z,0.194
2018-10-17T09:18:50.042Z,0.165
2018-10-17T09:20:52.795Z,0.165
2018-10-17T09:22:49.907Z,0.211
2018-10-17T09:24:50.063Z,0.211
2018-10-17T09:26:50.475Z,0.222
2018-10-17T09:28:50.634Z,0.205
2018-10-17T09:30:49.909Z,0.194
2018-10-17T09:32:50.221Z,0.245
2018-10-17T09:34:50.107Z,0.262
2018-10-17T09:36:50.452Z,0.251
2018-10-17T09:38:50.719Z,0.205
2018-10-17T09:40:49.923Z,0.200
2018-10-17T09:42:50.314Z,0.205
2018-10-17T09:44:50.699Z,0.228
2018-10-17T09:46:50.075Z,0.188
2018-10-17T09:48:50.240Z,0.217
2018-10-17T09:50:50.439Z,0.205
2018-10-17T09:52:50.647Z,0.222
2018-10-17T09:54:49.862Z,0.222
2018-10-17T09:56:50.298Z,0.228
2018-10-17T09:58:50.507Z,0.245
2018-10-17T10:00:50.713Z,0.251
2018-10-17T10:02:49.910Z,0.154
2018-10-17T10:04:50.294Z,0.154
2018-10-17T10:06:50.641Z,0.251
2018-10-17T10:08:49.865Z,0.205
2018-10-17T10:10:50.143Z,0.165
2018-10-17T10:12:50.359Z,0.114
2018-10-17T10:14:50.507Z,0.171
2018-10-17T10:16:49.894Z,0.234
2018-10-17T10:18:50.074Z,0.194
2018-10-17T10:20:50.250Z,0.182
2018-10-17T10:22:50.429Z,0.182
2018-10-17T10:24:51.168Z,0.182
2018-10-17T10:26:49.852Z,0.222
2018-10-17T10:28:49.982Z,0.205
2018-10-17T10:30:50.144Z,0.177
2018-10-17T10:32:50.358Z,0.222
2018-10-17T10:34:49.888Z,0.200
2018-10-17T10:36:50.303Z,0.217
2018-10-17T10:38:50.486Z,0.228
2018-10-17T10:40:50.680Z,0.228
2018-10-17T10:42:49.924Z,0.234
2018-10-17T10:44:50.511Z,0.160
2018-10-17T10:46:49.964Z,0.211
2018-10-17T10:48:50.234Z,0.188
2018-10-17T10:50:50.303Z,0.205
2018-10-17T10:52:50.715Z,0.251
2018-10-17T10:54:50.168Z,0.182
2018-10-17T10:56:50.623Z,0.228
2018-10-17T10:58:52.130Z,0.165
2018-10-17T11:00:49.809Z,0.165
2018-10-17T11:02:49.987Z,0.245
2018-10-17T11:04:51.196Z,0.177
2018-10-17T11:06:49.885Z,0.205
2018-10-17T11:08:50.055Z,0.222
2018-10-17T11:10:50.266Z,0.234
2018-10-17T11:12:50.395Z,0.211
2018-10-17T11:14:51.420Z,0.177
2018-10-17T11:16:50.334Z,0.177
2018-10-17T11:18:50.486Z,0.177
2018-10-17T11:20:50.609Z,0.160
2018-10-17T11:22:50.680Z,0.239
2018-10-17T11:24:49.835Z,0.274
2018-10-17T11:26:50.214Z,0.177
2018-10-17T11:28:50.337Z,0.188
2018-10-17T11:30:50.486Z,0.194
2018-10-17T11:32:50.750Z,0.194
2018-10-17T11:34:50.272Z,0.200
2018-10-17T11:36:50.574Z,0.217
2018-10-17T11:38:49.801Z,0.211
2018-10-17T11:40:50.287Z,0.194
2018-10-17T11:42:50.582Z,0.194
2018-10-17T11:44:50.787Z,0.194
2018-10-17T11:46:50.114Z,0.200
2018-10-17T11:48:50.324Z,0.182
2018-10-17T11:50:50.468Z,0.217
2018-10-17T11:52:50.594Z,0.177
2018-10-17T11:54:50.756Z,0.177
2018-10-17T11:56:50.109Z,0.200
2018-10-17T11:58:50.301Z,0.188
2018-10-17T12:00:50.446Z,0.205
2018-10-17T12:02:50.573Z,0.143
2018-10-17T12:04:51.477Z,0.211
2018-10-17T12:06:50.162Z,0.148
2018-10-17T12:08:50.354Z,0.000
2018-10-17T12:10:50.580Z,0.000
2018-10-17T12:12:49.806Z,0.000
2018-10-17T12:14:49.990Z,0.000
2018-10-17T12:16:50.492Z,0.000
2018-10-17T12:18:50.784Z,0.000
2018-10-17T12:20:50.270Z,0.000
2018-10-17T12:22:49.797Z,0.000
2018-10-17T12:24:49.917Z,0.000
2018-10-17T12:26:50.230Z,0.000
2018-10-17T12:28:51.172Z,0.000
2018-10-17T12:30:50.768Z,0.000
2018-10-17T12:32:49.998Z,0.000
2018-10-17T12:34:50.510Z,0.000
2018-10-17T12:36:50.020Z,0.000
2018-10-17T12:38:50.476Z,0.000
2018-10-17T12:40:50.990Z,0.000
2018-10-17T12:42:49.903Z,0.000
2018-10-17T12:44:50.264Z,0.000
2018-10-17T12:46:49.789Z,0.000
2018-10-17T12:48:50.002Z,0.000
2018-10-17T12:50:50.144Z,0.000
2018-10-17T12:52:51.791Z,0.000
2018-10-17T12:54:50.536Z,0.000
2018-10-17T12:56:49.960Z,0.000
2018-10-17T12:58:50.062Z,0.000
2018-10-17T13:00:50.188Z,0.000
2018-10-17T13:02:50.381Z,0.000
2018-10-17T13:04:49.856Z,0.000
2018-10-17T13:06:50.165Z,0.000
2018-10-17T13:08:50.320Z,0.000
2018-10-17T13:10:50.707Z,0.000
2018-10-17T13:12:49.920Z,0.000
2018-10-17T13:14:50.164Z,0.000
2018-10-17T13:16:50.606Z,0.000
2018-10-17T13:18:49.828Z,0.000
2018-10-17T13:20:50.029Z,0.000
2018-10-17T13:22:50.165Z,0.000
2018-10-17T13:24:50.391Z,0.000
2018-10-17T13:26:50.747Z,0.000
2018-10-17T13:28:49.930Z,0.000
2018-10-17T13:30:50.034Z,0.000
2018-10-17T13:32:50.185Z,0.000
2018-10-17T13:34:50.567Z,0.000
2018-10-17T13:36:49.836Z,0.000
2018-10-17T13:38:50.013Z,0.000
2018-10-17T13:40:50.206Z,0.000
2018-10-17T13:42:50.314Z,0.000
2018-10-17T13:44:50.459Z,0.000
2018-10-17T13:46:49.841Z,0.000
2018-10-17T13:48:50.233Z,0.000
2018-10-17T13:50:50.581Z,0.000
2018-10-17T13:52:50.659Z,0.165
2018-10-17T13:54:50.791Z,0.177
2018-10-17T13:56:50.658Z,0.217
2018-10-17T13:58:49.802Z,0.148
2018-10-17T14:00:49.975Z,0.148
2018-10-17T14:02:50.140Z,0.177
2018-10-17T14:04:50.583Z,0.205
2018-10-17T14:06:50.064Z,0.268
2018-10-17T14:08:50.219Z,0.211
2018-10-17T14:10:50.388Z,0.177
2018-10-17T14:12:50.516Z,0.148
2018-10-17T14:14:50.744Z,0.148
2018-10-17T14:16:50.073Z,0.160
2018-10-17T14:18:50.339Z,0.200
2018-10-17T14:20:50.464Z,0.171
2018-10-17T14:22:49.841Z,0.165
2018-10-17T14:24:49.969Z,0.171
2018-10-17T14:26:50.187Z,0.171
2018-10-17T14:28:50.351Z,0.154
2018-10-17T14:30:50.492Z,0.194
2018-10-17T14:32:49.866Z,0.217
2018-10-17T14:34:50.434Z,0.188
2018-10-17T14:36:50.766Z,0.188
2018-10-17T14:38:50.029Z,0.211
2018-10-17T14:40:51.046Z,0.182
2018-10-17T14:42:50.531Z,0.137
2018-10-17T14:44:50.714Z,0.182
2018-10-17T14:46:50.226Z,0.143
2018-10-17T14:48:50.436Z,0.154
2018-10-17T14:50:50.518Z,0.171
2018-10-17T14:52:49.820Z,0.200
2018-10-17T14:54:49.976Z,0.177
2018-10-17T14:56:50.360Z,0.143
2018-10-17T14:58:50.556Z,0.171
2018-10-17T15:00:50.730Z,0.160
2018-10-17T15:02:49.995Z,0.177
2018-10-17T15:04:50.417Z,0.211
2018-10-17T15:06:50.662Z,0.200
2018-10-17T15:08:49.832Z,0.143
2018-10-17T15:10:51.565Z,0.177
2018-10-17T15:12:49.806Z,0.125
2018-10-17T15:14:50.246Z,0.160
2018-10-17T15:16:51.203Z,0.182
2018-10-17T15:18:50.646Z,0.154
2018-10-17T15:20:49.870Z,0.120
2018-10-17T15:22:50.064Z,0.182
2018-10-17T15:24:50.915Z,0.171
2018-10-17T15:26:50.501Z,0.239
2018-10-17T15:28:50.609Z,0.154
2018-10-17T15:30:49.797Z,0.137
2018-10-17T15:32:50.001Z,0.182
2018-10-17T15:34:50.476Z,0.200
2018-10-17T15:36:50.119Z,0.222
2018-10-17T15:38:50.408Z,0.165
2018-10-17T15:40:50.623Z,0.217
2018-10-17T15:42:50.755Z,0.103
2018-10-17T15:44:49.938Z,0.120
2018-10-17T15:46:50.202Z,0.200
2018-10-17T15:48:50.354Z,0.165
2018-10-17T15:50:50.504Z,0.143
2018-10-17T15:52:50.973Z,0.154
2018-10-17T15:54:50.224Z,0.177
2018-10-17T15:56:50.501Z,0.165
2018-10-17T15:58:50.827Z,0.222
2018-10-17T16:00:50.395Z,0.205
2018-10-17T16:02:50.750Z,0.137
2018-10-17T16:04:50.430Z,0.137
2018-10-17T16:06:50.738Z,0.160
2018-10-17T16:08:50.026Z,0.120
2018-10-17T16:10:50.263Z,0.194
2018-10-17T16:12:50.488Z,0.205
2018-10-17T16:14:50.740Z,0.182
2018-10-17T16:16:50.378Z,0.148
2018-10-17T16:18:50.752Z,0.200
2018-10-17T16:20:49.897Z,0.131
2018-10-17T16:22:50.737Z,0.165
2018-10-17T16:24:50.349Z,0.177
2018-10-17T16:26:50.742Z,0.188
2018-10-17T16:28:49.959Z,0.154
2018-10-17T16:30:51.107Z,0.154
2018-10-17T16:32:50.606Z,0.131
2018-10-17T16:34:50.331Z,0.171
2018-10-17T16:36:49.824Z,0.228
2018-10-17T16:38:50.057Z,0.160
2018-10-17T16:40:50.728Z,0.182
2018-10-17T16:42:50.174Z,0.131
2018-10-17T16:44:50.402Z,0.222
2018-10-17T16:46:50.766Z,0.160
2018-10-17T16:48:49.972Z,0.154
2018-10-17T16:50:50.944Z,0.154
2018-10-17T16:52:50.565Z,0.154
2018-10-17T16:54:49.861Z,0.268
2018-10-17T16:56:50.234Z,0.194
2018-10-17T16:58:50.433Z,0.200
2018-10-17T17:00:50.602Z,0.205
2018-10-17T17:02:49.824Z,0.177
2018-10-17T17:04:50.280Z,0.234
2018-10-17T17:06:50.560Z,0.217
2018-10-17T17:08:49.800Z,0.171
2018-10-17T17:10:50.067Z,0.148
2018-10-17T17:12:50.201Z,0.177
2018-10-17T17:14:50.484Z,0.165
2018-10-17T17:16:49.892Z,0.234
2018-10-17T17:18:50.016Z,0.137
2018-10-17T17:20:50.162Z,0.171
2018-10-17T17:22:51.249Z,0.200
2018-10-17T17:24:50.024Z,0.182
2018-10-17T17:26:50.370Z,0.222
2018-10-17T17:28:50.588Z,0.211
2018-10-17T17:30:49.849Z,0.222
2018-10-17T17:32:50.060Z,0.188
2018-10-17T17:34:50.538Z,0.171
2018-10-17T17:36:49.784Z,0.171
2018-10-17T17:38:50.060Z,0.171
2018-10-17T17:44:50.472Z,0.262
2018-10-17T17:46:49.883Z,0.262
2018-10-17T17:48:50.009Z,0.262
2018-10-17T17:50:50.237Z,0.217
2018-10-17T17:52:50.423Z,0.205
2018-10-17T17:54:50.510Z,0.205
2018-10-17T17:58:49.934Z,0.137
2018-10-17T18:00:50.030Z,0.217
2018-10-17T18:02:50.207Z,0.234
2018-10-17T18:04:49.786Z,0.234
2018-10-17T18:06:50.143Z,0.194
2018-10-17T18:08:50.282Z,0.217
2018-10-17T18:10:50.397Z,0.200
2018-10-17T18:12:50.473Z,0.211
2018-10-17T18:14:50.686Z,0.194
2018-10-17T18:16:50.159Z,0.217
2018-10-17T18:18:50.295Z,0.274
2018-10-17T18:20:50.422Z,0.234
2018-10-17T18:22:50.587Z,0.234
2018-10-17T18:24:50.782Z,0.234
2018-10-17T18:26:50.238Z,0.217
2018-10-17T18:28:50.365Z,0.217
2018-10-17T18:30:50.459Z,0.217
2018-10-17T18:32:50.723Z,0.251
2018-10-17T18:34:50.442Z,0.205
2018-10-17T18:36:49.858Z,0.182
2018-10-17T18:38:49.987Z,0.239
2018-10-17T18:40:50.111Z,0.200
2018-10-17T18:42:50.267Z,0.188
2018-10-17T18:44:50.461Z,0.211
2018-10-17T18:46:49.882Z,0.177
2018-10-17T18:48:50.050Z,0.239
2018-10-17T18:50:50.209Z,0.177
2018-10-17T18:52:50.308Z,0.245
2018-10-17T18:54:50.429Z,0.262
2018-10-17T18:56:49.850Z,0.205
2018-10-17T18:58:50.054Z,0.182
2018-10-17T19:00:50.236Z,0.165
2018-10-17T19:02:50.360Z,0.148
2018-10-17T19:04:49.793Z,0.182
2018-10-17T19:06:50.252Z,0.268
2018-10-17T19:08:50.397Z,0.205
2018-10-17T19:10:50.549Z,0.182
2018-10-17T19:12:50.661Z,0.222
2018-10-17T19:14:49.790Z,0.228
2018-10-17T19:16:50.143Z,0.279
2018-10-17T19:18:50.320Z,0.177
2018-10-17T19:20:50.506Z,0.239
2018-10-17T19:22:49.869Z,0.251
2018-10-17T19:24:50.782Z,0.251
2018-10-17T19:26:50.629Z,0.239
2018-10-17T19:28:49.792Z,0.245
2018-10-17T19:30:49.984Z,0.245
2018-10-17T19:32:50.137Z,0.194
2018-10-17T19:34:50.595Z,0.262
2018-10-17T19:36:49.923Z,0.182
2018-10-17T19:38:50.130Z,0.257
2018-10-17T19:40:50.341Z,0.222
2018-10-17T19:42:50.601Z,0.222
2018-10-17T19:44:49.790Z,0.234
2018-10-17T19:46:50.069Z,0.188
2018-10-17T19:48:50.310Z,0.211
2018-10-17T19:50:50.456Z,0.239
2018-10-17T19:52:50.759Z,0.245
2018-10-17T19:54:49.988Z,0.245
2018-10-17T19:56:50.288Z,0.291
2018-10-17T19:58:50.395Z,0.182
2018-10-17T20:00:50.659Z,0.177
2018-10-17T20:02:49.923Z,0.257
2018-10-17T20:04:50.385Z,0.205
2018-10-17T20:06:49.824Z,0.211
2018-10-17T20:08:50.015Z,0.268
2018-10-17T20:10:50.187Z,0.302
2018-10-17T20:12:50.371Z,0.222
2018-10-17T20:14:50.555Z,0.211
2018-10-17T20:16:49.917Z,0.200
2018-10-17T20:18:50.172Z,0.200
2018-10-17T20:20:50.362Z,0.205
2018-10-17T20:22:50.563Z,0.211
2018-10-17T20:24:50.820Z,0.257
2018-10-17T20:26:50.326Z,0.217
2018-10-17T20:28:50.572Z,0.234
2018-10-17T20:30:50.760Z,0.222
2018-10-17T20:32:49.799Z,0.194
2018-10-17T20:34:50.604Z,0.222
2018-10-17T20:36:50.133Z,0.222
2018-10-17T20:38:50.249Z,0.268
2018-10-17T20:40:50.484Z,0.245
2018-10-17T20:42:50.824Z,0.251
2018-10-17T20:44:50.000Z,0.257
2018-10-17T20:46:50.218Z,0.222
2018-10-17T20:48:50.452Z,0.222
2018-10-17T20:50:50.667Z,0.279
2018-10-17T20:52:49.897Z,0.205
2018-10-17T20:54:50.100Z,0.228
2018-10-17T20:56:50.521Z,0.205
2018-10-17T20:58:49.942Z,0.239
2018-10-17T21:00:50.254Z,0.251
2018-10-17T21:02:50.485Z,0.188
2018-10-17T21:04:50.142Z,0.217
2018-10-17T21:06:50.464Z,0.188
2018-10-17T21:08:50.556Z,0.188
2018-10-17T21:10:49.911Z,0.239
2018-10-17T21:12:50.034Z,0.211
2018-10-17T21:14:50.229Z,0.245
2018-10-17T21:16:50.612Z,0.222
2018-10-17T21:18:50.592Z,0.274
2018-10-17T21:20:50.212Z,0.217
2018-10-17T21:22:50.437Z,0.279
2018-10-17T21:24:50.753Z,0.268
2018-10-17T21:26:50.703Z,0.188
2018-10-17T21:28:50.193Z,0.188
2018-10-17T21:30:50.380Z,0.257
2018-10-17T21:32:50.552Z,0.171
2018-10-17T21:34:50.223Z,0.205
2018-10-17T21:36:50.648Z,0.279
2018-10-17T21:38:49.797Z,0.182
2018-10-17T21:40:49.967Z,0.182
2018-10-17T21:50:50.362Z,0.137
2018-10-17T21:52:50.519Z,0.137
2018-10-17T22:04:50.236Z,0.200
2018-10-17T22:06:50.555Z,0.200
2018-10-17T22:08:49.788Z,0.239
2018-10-17T22:10:50.137Z,0.239
2018-10-17T22:14:50.351Z,0.268
2018-10-17T22:16:50.701Z,0.228
2018-10-17T22:18:50.590Z,0.274
2018-10-17T22:20:49.892Z,0.228
2018-10-17T22:22:50.040Z,0.222
2018-10-17T22:24:50.140Z,0.245
2018-10-17T22:26:50.491Z,0.222
2018-10-17T22:28:50.603Z,0.239
2018-10-17T22:30:49.840Z,0.268
2018-10-17T22:32:50.010Z,0.211
2018-10-17T22:34:50.548Z,0.234
2018-10-17T22:36:49.877Z,0.308
2018-10-17T22:38:50.074Z,0.251
2018-10-17T22:40:50.322Z,0.200
2018-10-17T22:42:50.624Z,0.200
2018-10-17T22:44:50.743Z,0.257
2018-10-17T22:46:50.374Z,0.257
2018-10-17T22:48:50.614Z,0.211
2018-10-17T22:50:49.792Z,0.325
2018-10-17T22:52:49.979Z,0.245
2018-10-17T22:54:50.116Z,0.234
2018-10-17T22:56:50.444Z,0.182
2018-10-17T22:58:50.735Z,0.274
2018-10-17T23:00:49.962Z,0.205
2018-10-17T23:02:50.096Z,0.217
2018-10-17T23:04:50.521Z,0.268
2018-10-17T23:06:49.802Z,0.268
2018-10-17T23:08:49.961Z,0.268
2018-10-17T23:10:50.182Z,0.217
2018-10-17T23:12:50.345Z,0.217
2018-10-17T23:14:50.531Z,0.245
2018-10-17T23:16:49.879Z,0.245
2018-10-17T23:18:50.064Z,0.200
2018-10-17T23:20:50.328Z,0.200
2018-10-17T23:50:50.569Z,0.228
2018-10-17T23:52:49.842Z,0.228
2018-10-17T23:54:50.014Z,0.211
2018-10-17T23:56:50.376Z,0.257
2018-10-17T23:58:50.538Z,0.257
